Terminal Aerodrome Forecast
Issued by NWS

Home | Current Version | Previous Version | Text Only | Print | Product List | Glossary On
Versions: 1 2 3 4 5 6 7 8 9 10 11 12 13 14 15 16 17 18 19 20 21 22 23 24 25 26 27 28 29 30 31 32 33 34 35 36
532
FTAK31 PAFA 251739
TAFAOM
TAF
PAOM 251739Z 2518/2618 VRB04KT P6SM VCSH BKN007 OVC035
     FM252000 23007KT 4SM -SHRA BR OVC007
     FM260800 32006KT P6SM VCSH SCT010 BKN025
     FM261400 33007KT P6SM SCT025 SCT050 BKN100=

USA.gov is the U.S. government's official web portal to all federal, state and local government web resources and services.